createdAt,value
2023-05-22T00:00:16.952Z,97579.58
2023-05-22T00:03:05.537Z,97580.12
2023-05-22T00:05:39.519Z,97577.95
2023-05-22T00:08:13.963Z,97577.59
2023-05-22T00:10:42.709Z,97574.81
2023-05-22T00:13:10.804Z,97569.91
2023-05-22T00:15:39.278Z,97568.03
2023-05-22T00:18:08.458Z,97569.36
2023-05-22T00:20:39.412Z,97565.66
2023-05-22T00:23:13.072Z,97570.67
2023-05-22T00:25:42.705Z,97568.65
2023-05-22T00:28:12.048Z,97570.92
2023-05-22T00:30:40.250Z,97573.13
2023-05-22T00:33:08.644Z,97568.36
2023-05-22T00:35:36.975Z,97567.11
2023-05-22T00:38:06.578Z,97571.05
2023-05-22T00:40:34.934Z,97569.71
2023-05-22T00:43:08.647Z,97570.15
2023-05-22T00:45:37.827Z,97570.14
2023-05-22T00:48:06.195Z,97572.88
2023-05-22T00:50:34.477Z,97571.52
2023-05-22T00:53:02.644Z,97568.50
2023-05-22T00:55:31.041Z,97567.17
2023-05-22T00:57:59.955Z,97567.58
2023-05-22T01:00:28.500Z,97568.53
2023-05-22T01:02:57.142Z,97569.10
2023-05-22T01:05:25.679Z,97566.55
2023-05-22T01:07:54.157Z,97566.04
2023-05-22T01:10:22.547Z,97565.64
2023-05-22T01:13:09.036Z,97563.41
2023-05-22T01:15:57.203Z,97561.55
2023-05-22T01:18:55.416Z,97564.98
2023-05-22T01:21:53.743Z,97567.77
2023-05-22T01:24:56.427Z,97568.16
2023-05-22T01:27:42.359Z,97565.86
2023-05-22T01:30:41.487Z,97561.23
2023-05-22T01:33:12.350Z,97564.20
2023-05-22T01:35:44.184Z,97564.06
2023-05-22T01:38:13.537Z,97565.23
2023-05-22T01:40:42.132Z,97558.86
2023-05-22T01:43:10.863Z,97557.54
2023-05-22T01:45:39.986Z,97556.64
2023-05-22T01:48:08.444Z,97555.34
2023-05-22T01:50:36.762Z,97548.61
2023-05-22T01:53:11.650Z,97553.50
2023-05-22T01:55:50.684Z,97557.60
2023-05-22T01:58:50.090Z,97558.66
2023-05-22T02:01:22.752Z,97563.02
2023-05-22T02:03:57.148Z,97558.02
2023-05-22T02:06:32.874Z,97554.45
2023-05-22T02:09:03.007Z,97554.02
2023-05-22T02:11:34.123Z,97553.17
2023-05-22T02:14:03.001Z,97552.66
2023-05-22T02:16:31.264Z,97553.27
2023-05-22T02:19:06.683Z,97554.46
2023-05-22T02:21:36.589Z,97553.48
2023-05-22T02:24:05.282Z,97554.08
2023-05-22T02:26:33.501Z,97552.60
2023-05-22T02:29:01.761Z,97549.02
2023-05-22T02:31:30.092Z,97549.73
2023-05-22T02:33:58.482Z,97548.70
2023-05-22T02:36:27.089Z,97553.39
2023-05-22T02:38:55.880Z,97555.38
2023-05-22T02:41:25.205Z,97558.28
2023-05-22T02:43:53.829Z,97558.56
2023-05-22T02:46:22.157Z,97557.40
2023-05-22T02:48:50.765Z,97555.50
2023-05-22T02:51:19.839Z,97554.14
2023-05-22T02:53:48.080Z,97559.38
2023-05-22T02:56:16.350Z,97563.19
2023-05-22T02:58:44.722Z,97567.87
2023-05-22T03:01:12.595Z,97568.91
2023-05-22T03:03:40.618Z,97566.02
2023-05-22T03:06:10.681Z,97560.62
2023-05-22T03:08:41.926Z,97554.64
2023-05-22T03:11:10.557Z,97553.84
2023-05-22T03:13:38.526Z,97549.77
2023-05-22T03:16:06.993Z,97551.94
2023-05-22T03:18:36.613Z,97552.61
2023-05-22T03:21:05.091Z,97549.14
2023-05-22T03:23:33.528Z,97548.75
2023-05-22T03:26:01.633Z,97544.32
2023-05-22T03:28:32.072Z,97545.86
2023-05-22T03:31:00.209Z,97548.07
2023-05-22T03:33:32.208Z,97549.66
2023-05-22T03:36:01.283Z,97550.27
2023-05-22T03:38:29.565Z,97551.67
2023-05-22T03:40:57.600Z,97555.96
2023-05-22T03:43:26.006Z,97557.38
2023-05-22T03:45:54.189Z,97561.85
2023-05-22T03:48:22.288Z,97560.73
2023-05-22T03:50:51.208Z,97558.73
2023-05-22T03:53:19.283Z,97557.26
2023-05-22T03:55:47.357Z,97558.73
2023-05-22T03:58:15.540Z,97561.86
2023-05-22T04:00:43.834Z,97562.77
2023-05-22T04:03:19.602Z,97562.42
2023-05-22T04:05:48.054Z,97563.90
2023-05-22T04:08:16.043Z,97560.86
2023-05-22T04:10:48.903Z,97560.70
2023-05-22T04:13:17.478Z,97558.77
2023-05-22T04:15:46.205Z,97560.63
2023-05-22T04:18:14.734Z,97557.50
2023-05-22T04:20:45.905Z,97556.73
2023-05-22T04:23:14.153Z,97553.39
2023-05-22T04:25:42.361Z,97550.45
2023-05-22T04:28:10.532Z,97548.89
2023-05-22T04:30:40.625Z,97547.64
2023-05-22T04:33:08.997Z,97547.77
2023-05-22T04:35:37.237Z,97547.85
2023-05-22T04:38:06.425Z,97549.70
2023-05-22T04:40:34.601Z,97551.00
2023-05-22T04:43:03.599Z,97545.85
2023-05-22T04:45:33.165Z,97546.52
2023-05-22T04:48:02.876Z,97542.07
2023-05-22T04:50:36.348Z,97544.27
2023-05-22T04:53:05.933Z,97542.00
2023-05-22T04:55:34.328Z,97539.23
2023-05-22T04:58:02.974Z,97535.04
2023-05-22T05:00:31.363Z,97534.84
2023-05-22T05:03:00.750Z,97531.84
2023-05-22T05:05:29.007Z,97526.21
2023-05-22T05:07:57.614Z,97524.95
2023-05-22T05:10:25.992Z,97528.38
2023-05-22T05:12:54.454Z,97529.52
2023-05-22T05:15:23.950Z,97530.89
2023-05-22T05:17:52.053Z,97529.11
2023-05-22T05:20:20.874Z,97525.14
2023-05-22T05:22:48.913Z,97525.52
2023-05-22T05:25:18.457Z,97526.58
2023-05-22T05:27:46.770Z,97523.73
2023-05-22T05:30:16.178Z,97520.91
2023-05-22T05:33:17.746Z,97521.13
2023-05-22T05:36:21.454Z,97521.25
2023-05-22T05:38:50.378Z,97526.94
2023-05-22T05:41:19.208Z,97527.45
2023-05-22T05:43:49.593Z,97522.33
2023-05-22T05:46:18.610Z,97522.38
2023-05-22T05:48:46.753Z,97516.02
2023-05-22T05:51:16.160Z,97515.58
2023-05-22T05:53:45.003Z,97514.77
2023-05-22T05:56:13.213Z,97511.34
2023-05-22T05:58:41.460Z,97511.19
2023-05-22T06:01:35.460Z,97512.92
2023-05-22T06:04:05.786Z,97512.27
2023-05-22T06:06:36.622Z,97509.67
2023-05-22T06:09:25.690Z,97505.42
2023-05-22T06:12:14.520Z,97503.40
2023-05-22T06:14:45.260Z,97507.83
2023-05-22T06:17:13.882Z,97505.88
2023-05-22T06:19:42.791Z,97502.91
2023-05-22T06:22:11.217Z,97503.35
2023-05-22T06:24:40.820Z,97506.09
2023-05-22T06:27:13.730Z,97504.44
2023-05-22T06:29:42.411Z,97501.15
2023-05-22T06:32:10.626Z,97501.31
2023-05-22T06:34:40.606Z,97492.62
2023-05-22T06:37:09.572Z,97492.45
2023-05-22T06:39:40.843Z,97491.80
2023-05-22T06:42:14.135Z,97492.88
2023-05-22T06:45:00.682Z,97487.71
2023-05-22T06:47:35.273Z,97486.06
2023-05-22T06:50:03.940Z,97481.94
2023-05-22T06:52:33.786Z,97482.52
2023-05-22T06:55:05.812Z,97484.14
2023-05-22T06:57:37.581Z,97482.52
2023-05-22T07:00:12.311Z,97484.13
2023-05-22T07:03:02.181Z,97480.13
2023-05-22T07:05:34.381Z,97479.61
2023-05-22T07:08:03.023Z,97477.73
2023-05-22T07:10:31.414Z,97477.30
2023-05-22T07:13:00.110Z,97477.58
2023-05-22T07:15:28.736Z,97473.60
2023-05-22T07:17:57.942Z,97474.60
2023-05-22T07:20:26.403Z,97471.48
2023-05-22T07:23:03.921Z,97472.17
2023-05-22T07:25:32.434Z,97470.23
2023-05-22T07:28:04.184Z,97469.46
2023-05-22T07:30:32.572Z,97468.60
2023-05-22T07:33:01.590Z,97466.98
2023-05-22T07:35:29.746Z,97460.41
2023-05-22T07:37:57.895Z,97461.55
2023-05-22T07:40:27.057Z,97461.13
2023-05-22T07:42:55.418Z,97459.91
2023-05-22T07:45:23.550Z,97461.83
2023-05-22T07:47:54.049Z,97463.55
2023-05-22T07:50:26.654Z,97460.84
2023-05-22T07:52:55.030Z,97463.80
2023-05-22T07:55:23.632Z,97462.35
2023-05-22T07:57:52.958Z,97463.12
2023-05-22T08:00:28.867Z,97460.13
2023-05-22T08:02:57.375Z,97460.66
2023-05-22T08:05:25.759Z,97458.45
2023-05-22T08:07:53.891Z,97459.46
2023-05-22T08:10:37.243Z,97461.81
2023-05-22T08:13:16.828Z,97460.68
2023-05-22T08:15:45.175Z,97459.13
2023-05-22T08:18:13.743Z,97461.95
2023-05-22T08:20:42.004Z,97455.76
2023-05-22T08:23:10.079Z,97452.54
2023-05-22T08:25:38.450Z,97448.45
2023-05-22T08:28:06.532Z,97446.21
2023-05-22T08:30:34.573Z,97446.29
2023-05-22T08:33:03.005Z,97445.36
2023-05-22T08:35:31.134Z,97444.54
2023-05-22T08:37:59.029Z,97439.02
2023-05-22T08:40:38.171Z,97440.11
2023-05-22T08:43:07.089Z,97435.27
2023-05-22T08:45:35.412Z,97434.88
2023-05-22T08:48:07.051Z,97428.96
2023-05-22T08:50:38.767Z,97425.48
2023-05-22T08:53:08.427Z,97427.41
2023-05-22T08:55:37.616Z,97428.74
2023-05-22T08:58:06.887Z,97425.98
2023-05-22T09:00:35.397Z,97423.81
2023-05-22T09:03:06.937Z,97428.93
2023-05-22T09:05:36.437Z,97426.40
2023-05-22T09:08:16.046Z,97427.52
2023-05-22T09:10:48.157Z,97425.33
2023-05-22T09:13:28.401Z,97424.66
2023-05-22T09:16:10.346Z,97421.50
2023-05-22T09:18:39.026Z,97421.06
2023-05-22T09:21:21.720Z,97419.94
2023-05-22T09:24:01.450Z,97421.23
2023-05-22T09:26:30.595Z,97421.82
2023-05-22T09:29:00.066Z,97421.27
2023-05-22T09:31:31.914Z,97414.95
2023-05-22T09:34:00.055Z,97409.80
2023-05-22T09:36:34.603Z,97408.46
2023-05-22T09:39:04.564Z,97405.25
2023-05-22T09:41:37.964Z,97403.27
2023-05-22T09:44:16.353Z,97400.01
2023-05-22T09:46:46.580Z,97399.63
2023-05-22T09:49:16.753Z,97398.14
2023-05-22T09:51:49.463Z,97399.16
2023-05-22T09:54:19.982Z,97398.80
2023-05-22T09:56:50.612Z,97394.83
2023-05-22T09:59:27.394Z,97394.79
2023-05-22T10:01:56.202Z,97391.77
2023-05-22T10:04:25.973Z,97387.98
2023-05-22T10:06:58.099Z,97386.60
2023-05-22T10:09:31.389Z,97386.11
2023-05-22T10:12:05.866Z,97387.45
2023-05-22T10:14:36.048Z,97385.23
2023-05-22T10:17:04.944Z,97387.84
2023-05-22T10:19:35.232Z,97387.05
2023-05-22T10:22:05.238Z,97383.84
2023-05-22T10:24:34.213Z,97382.02
2023-05-22T10:27:02.473Z,97377.97
2023-05-22T10:29:45.310Z,97373.98
2023-05-22T10:32:38.582Z,97369.75
2023-05-22T10:35:36.284Z,97364.84
2023-05-22T10:38:38.106Z,97365.64
2023-05-22T10:41:07.319Z,97364.75
2023-05-22T10:43:41.661Z,97365.45
2023-05-22T10:46:12.188Z,97365.68
2023-05-22T10:48:41.859Z,97364.56
2023-05-22T10:51:10.267Z,97360.31
2023-05-22T10:53:40.902Z,97355.02
2023-05-22T10:56:16.120Z,97351.41
2023-05-22T10:59:05.473Z,97349.60
2023-05-22T11:01:36.572Z,97346.59
2023-05-22T11:04:19.241Z,97347.70
2023-05-22T11:07:08.934Z,97345.11
2023-05-22T11:09:46.346Z,97343.51
2023-05-22T11:12:19.548Z,97346.84
2023-05-22T11:14:56.717Z,97343.39
2023-05-22T11:17:30.060Z,97340.11
2023-05-22T11:20:08.490Z,97335.95
2023-05-22T11:22:38.163Z,97328.54
2023-05-22T11:25:27.571Z,97328.63
2023-05-22T11:27:56.513Z,97328.63
2023-05-22T11:30:28.659Z,97331.89
2023-05-22T11:32:58.871Z,97330.73
2023-05-22T11:35:28.158Z,97326.60
2023-05-22T11:37:56.600Z,97329.08
2023-05-22T11:40:29.703Z,97329.92
2023-05-22T11:42:58.071Z,97318.31
2023-05-22T11:45:27.301Z,97315.73
2023-05-22T11:47:56.799Z,97319.81
2023-05-22T11:50:41.011Z,97320.20
2023-05-22T11:53:11.181Z,97320.93
2023-05-22T11:55:39.245Z,97321.42
2023-05-22T11:58:07.189Z,97315.36
2023-05-22T12:00:35.284Z,97315.33
2023-05-22T12:03:04.461Z,97311.46
2023-05-22T12:05:32.756Z,97308.44
2023-05-22T12:08:01.254Z,97310.41
2023-05-22T12:10:29.534Z,97307.27
2023-05-22T12:12:58.086Z,97307.10
2023-05-22T12:15:27.043Z,97306.43
2023-05-22T12:17:56.288Z,97308.46
2023-05-22T12:20:30.807Z,97314.08
2023-05-22T12:23:00.030Z,97317.58
2023-05-22T12:25:36.191Z,97320.16
2023-05-22T12:28:06.551Z,97312.89
2023-05-22T12:30:42.395Z,97307.20
2023-05-22T12:33:17.292Z,97306.88
2023-05-22T12:35:45.258Z,97298.86
2023-05-22T12:38:13.702Z,97297.73
2023-05-22T12:40:41.936Z,97294.45
2023-05-22T12:43:10.146Z,97298.13
2023-05-22T12:45:41.020Z,97296.39
2023-05-22T12:48:09.788Z,97300.89
2023-05-22T12:50:38.404Z,97297.42
2023-05-22T12:53:06.813Z,97295.86
2023-05-22T12:55:35.190Z,97291.01
2023-05-22T12:58:03.263Z,97296.15
2023-05-22T13:00:31.267Z,97293.38
2023-05-22T13:02:59.502Z,97293.11
2023-05-22T13:05:27.884Z,97294.30
2023-05-22T13:07:56.154Z,97288.23
2023-05-22T13:10:24.344Z,97287.69
2023-05-22T13:12:52.647Z,97285.78
2023-05-22T13:15:20.737Z,97287.43
2023-05-22T13:17:48.920Z,97285.86
2023-05-22T13:20:17.148Z,97288.58
2023-05-22T13:22:45.209Z,97282.97
2023-05-22T13:25:13.726Z,97282.60
2023-05-22T13:27:41.794Z,97278.06
2023-05-22T13:30:10.521Z,97275.95
2023-05-22T13:32:38.704Z,97277.02
2023-05-22T13:35:07.826Z,97268.13
2023-05-22T13:37:36.168Z,97268.30
2023-05-22T13:40:04.889Z,97270.14
2023-05-22T13:42:32.928Z,97268.27
2023-05-22T13:45:00.882Z,97268.60
2023-05-22T13:47:29.058Z,97267.71
2023-05-22T13:49:57.210Z,97262.20
2023-05-22T13:52:25.651Z,97261.77
2023-05-22T13:54:54.108Z,97258.64
2023-05-22T13:57:22.058Z,97259.95
2023-05-22T13:59:50.351Z,97256.73
2023-05-22T14:02:20.864Z,97255.69
2023-05-22T14:04:49.973Z,97250.98
2023-05-22T14:07:18.277Z,97248.78
2023-05-22T14:09:46.189Z,97248.09
2023-05-22T14:12:14.254Z,97251.21
2023-05-22T14:14:42.358Z,97246.64
2023-05-22T14:17:10.439Z,97244.17
2023-05-22T14:19:39.105Z,97243.83
2023-05-22T14:22:07.391Z,97239.30
2023-05-22T14:24:35.803Z,97237.77
2023-05-22T14:27:04.032Z,97235.02
2023-05-22T14:29:32.208Z,97236.73
2023-05-22T14:32:04.802Z,97238.86
2023-05-22T14:34:33.278Z,97243.27
2023-05-22T14:37:01.334Z,97242.95
2023-05-22T14:39:29.690Z,97240.67
2023-05-22T14:41:58.089Z,97240.14
2023-05-22T14:44:26.275Z,97235.98
2023-05-22T14:46:54.846Z,97234.08
2023-05-22T14:49:22.915Z,97235.25
2023-05-22T14:51:51.075Z,97232.24
2023-05-22T14:54:20.296Z,97230.83
2023-05-22T14:56:48.416Z,97228.94
2023-05-22T14:59:16.949Z,97226.95
2023-05-22T15:01:50.110Z,97226.71
2023-05-22T15:04:18.634Z,97227.44
2023-05-22T15:06:46.858Z,97228.39
2023-05-22T15:09:15.176Z,97226.07
2023-05-22T15:11:46.935Z,97227.58
2023-05-22T15:14:15.667Z,97228.34
2023-05-22T15:16:43.840Z,97229.53
2023-05-22T15:19:12.523Z,97232.38
2023-05-22T15:21:42.321Z,97234.63
2023-05-22T15:24:10.770Z,97233.36
2023-05-22T15:26:39.027Z,97235.08
2023-05-22T15:29:07.101Z,97230.61
2023-05-22T15:31:35.339Z,97223.83
2023-05-22T15:34:03.512Z,97221.59
2023-05-22T15:36:35.102Z,97224.92
2023-05-22T15:39:03.564Z,97221.11
2023-05-22T15:41:32.161Z,97217.21
2023-05-22T15:44:00.239Z,97214.96
2023-05-22T15:46:28.611Z,97213.31
2023-05-22T15:48:56.695Z,97213.23
2023-05-22T15:51:24.958Z,97208.48
2023-05-22T15:53:53.003Z,97203.77
2023-05-22T15:56:21.750Z,97199.45
2023-05-22T15:58:50.050Z,97195.57
2023-05-22T16:01:18.525Z,97192.55
2023-05-22T16:03:46.821Z,97193.81
2023-05-22T16:06:15.042Z,97196.66
2023-05-22T16:08:43.216Z,97193.29
2023-05-22T16:11:11.378Z,97193.15
2023-05-22T16:13:39.982Z,97191.11
2023-05-22T16:16:08.507Z,97195.02
2023-05-22T16:18:36.619Z,97192.00
2023-05-22T16:21:05.307Z,97190.54
2023-05-22T16:23:33.289Z,97190.23
2023-05-22T16:26:01.468Z,97189.56
2023-05-22T16:28:29.731Z,97190.89
2023-05-22T16:30:57.883Z,97189.80
2023-05-22T16:33:26.782Z,97185.77
2023-05-22T16:35:54.950Z,97185.34
2023-05-22T16:38:23.120Z,97186.27
2023-05-22T16:40:53.130Z,97184.02
2023-05-22T16:43:21.763Z,97182.20
2023-05-22T16:45:51.528Z,97189.61
2023-05-22T16:48:20.351Z,97193.08
2023-05-22T16:50:48.905Z,97201.00
2023-05-22T16:53:17.501Z,97202.65
2023-05-22T16:55:45.872Z,97205.96
2023-05-22T16:58:14.302Z,97204.45
2023-05-22T17:00:43.002Z,97206.47
2023-05-22T17:03:12.158Z,97207.30
2023-05-22T17:05:41.137Z,97207.52
2023-05-22T17:08:09.461Z,97208.70
2023-05-22T17:10:37.499Z,97209.40
2023-05-22T17:13:06.652Z,97209.02
2023-05-22T17:15:35.046Z,97211.98
2023-05-22T17:18:03.337Z,97216.17
2023-05-22T17:20:34.445Z,97221.70
2023-05-22T17:23:02.721Z,97221.83
2023-05-22T17:25:30.634Z,97224.55
2023-05-22T17:27:58.661Z,97224.80
2023-05-22T17:30:26.741Z,97229.12
2023-05-22T17:32:57.183Z,97231.15
2023-05-22T17:35:25.569Z,97229.90
2023-05-22T17:37:53.814Z,97228.81
2023-05-22T17:40:29.584Z,97229.64
2023-05-22T17:43:08.527Z,97234.19
2023-05-22T17:45:36.520Z,97238.39
2023-05-22T17:48:04.989Z,97242.98
2023-05-22T17:50:33.022Z,97244.77
2023-05-22T17:53:00.953Z,97246.46
2023-05-22T17:55:29.203Z,97249.84
2023-05-22T17:57:57.530Z,97256.09
2023-05-22T18:00:25.862Z,97258.58
2023-05-22T18:02:54.258Z,97263.32
2023-05-22T18:05:22.553Z,97266.84
2023-05-22T18:07:50.935Z,97266.48
2023-05-22T18:10:20.775Z,97267.17
2023-05-22T18:12:49.019Z,97273.24
2023-05-22T18:15:17.370Z,97273.41
2023-05-22T18:17:45.579Z,97272.85
2023-05-22T18:20:13.871Z,97278.91
2023-05-22T18:22:41.924Z,97278.00
2023-05-22T18:25:11.035Z,97280.96
2023-05-22T18:27:39.284Z,97283.34
2023-05-22T18:30:08.170Z,97288.83
2023-05-22T18:32:36.967Z,97287.70
2023-05-22T18:35:05.891Z,97290.93
2023-05-22T18:37:34.017Z,97296.77
2023-05-22T18:40:02.011Z,97298.50
2023-05-22T18:42:29.969Z,97302.52
2023-05-22T18:44:58.967Z,97305.77
2023-05-22T18:47:27.806Z,97307.55
2023-05-22T18:49:56.059Z,97312.76
2023-05-22T18:52:24.755Z,97313.80
2023-05-22T18:54:52.881Z,97316.02
2023-05-22T18:57:21.209Z,97320.23
2023-05-22T18:59:49.888Z,97323.11
2023-05-22T19:02:21.855Z,97321.84
2023-05-22T19:04:50.789Z,97322.46
2023-05-22T19:07:18.973Z,97324.30
2023-05-22T19:09:47.249Z,97322.03
2023-05-22T19:12:15.643Z,97323.40
2023-05-22T19:14:44.126Z,97326.95
2023-05-22T19:17:12.759Z,97333.27
2023-05-22T19:19:42.536Z,97337.30
2023-05-22T19:22:11.184Z,97335.60
2023-05-22T19:24:39.496Z,97336.46
2023-05-22T19:27:07.945Z,97341.40
2023-05-22T19:29:36.115Z,97344.86
2023-05-22T19:32:04.308Z,97345.35
2023-05-22T19:34:32.772Z,97346.55
2023-05-22T19:37:01.088Z,97345.17
2023-05-22T19:39:29.020Z,97346.89
2023-05-22T19:41:57.076Z,97345.20
2023-05-22T19:44:25.106Z,97346.77
2023-05-22T19:46:53.489Z,97347.03
2023-05-22T19:49:21.547Z,97348.05
2023-05-22T19:51:49.740Z,97350.52
2023-05-22T19:54:18.298Z,97351.47
2023-05-22T19:56:46.540Z,97353.52
2023-05-22T19:59:14.573Z,97352.92
2023-05-22T20:01:42.500Z,97351.98
2023-05-22T20:04:10.866Z,97350.70
2023-05-22T20:06:39.126Z,97352.50
2023-05-22T20:09:07.198Z,97350.15
2023-05-22T20:11:35.971Z,97349.37
2023-05-22T20:14:03.949Z,97349.71
2023-05-22T20:16:31.926Z,97351.92
2023-05-22T20:18:59.986Z,97351.55
2023-05-22T20:21:28.303Z,97348.96
2023-05-22T20:23:56.838Z,97350.59
2023-05-22T20:26:25.311Z,97352.44
2023-05-22T20:28:53.356Z,97349.50
2023-05-22T20:31:21.694Z,97349.61
2023-05-22T20:33:49.730Z,97349.59
2023-05-22T20:36:18.868Z,97348.70
2023-05-22T20:38:46.823Z,97348.74
2023-05-22T20:41:15.535Z,97349.23
2023-05-22T20:43:43.686Z,97355.13
2023-05-22T20:46:12.692Z,97359.56
2023-05-22T20:48:46.976Z,97359.57
2023-05-22T20:51:21.687Z,97358.62
2023-05-22T20:53:52.801Z,97357.81
2023-05-22T20:56:21.553Z,97360.93
2023-05-22T20:58:49.890Z,97367.98
2023-05-22T21:01:18.108Z,97387.08
2023-05-22T21:03:46.277Z,97398.11
2023-05-22T21:06:14.245Z,97394.00
2023-05-22T21:08:42.274Z,97393.50
2023-05-22T21:11:10.572Z,97401.19
2023-05-22T21:13:38.701Z,97407.30
2023-05-22T21:16:07.157Z,97400.59
2023-05-22T21:18:35.209Z,97399.27
2023-05-22T21:21:03.438Z,97398.77
2023-05-22T21:23:31.369Z,97396.60
2023-05-22T21:25:59.404Z,97391.33
2023-05-22T21:28:27.913Z,97388.66
2023-05-22T21:30:56.321Z,97386.35
2023-05-22T21:33:24.623Z,97382.30
2023-05-22T21:35:52.560Z,97380.03
2023-05-22T21:38:20.661Z,97372.98
2023-05-22T21:40:49.013Z,97371.54
2023-05-22T21:43:17.070Z,97369.41
2023-05-22T21:45:45.180Z,97369.06
2023-05-22T21:48:13.159Z,97372.77
2023-05-22T21:50:41.550Z,97376.30
2023-05-22T21:53:09.804Z,97372.13
2023-05-22T21:55:37.772Z,97372.92
2023-05-22T21:58:05.938Z,97370.15
2023-05-22T22:00:34.214Z,97371.62
2023-05-22T22:03:02.910Z,97371.31
2023-05-22T22:05:31.112Z,97372.31
2023-05-22T22:07:59.298Z,97375.09
2023-05-22T22:10:27.276Z,97377.27
2023-05-22T22:12:55.196Z,97379.23
2023-05-22T22:15:23.174Z,97377.26
2023-05-22T22:17:52.384Z,97379.15
2023-05-22T22:20:30.411Z,97377.15
2023-05-22T22:23:08.052Z,97384.66
2023-05-22T22:25:36.590Z,97386.58
2023-05-22T22:28:04.944Z,97383.90
2023-05-22T22:30:32.970Z,97380.83
2023-05-22T22:33:01.517Z,97381.08
2023-05-22T22:35:29.694Z,97382.23
2023-05-22T22:37:58.071Z,97384.47
2023-05-22T22:40:26.959Z,97386.20
2023-05-22T22:42:55.431Z,97390.83
2023-05-22T22:45:23.803Z,97394.47
2023-05-22T22:47:52.841Z,97399.25
2023-05-22T22:50:21.569Z,97401.77
2023-05-22T22:52:50.002Z,97403.69
2023-05-22T22:55:18.564Z,97406.69
2023-05-22T22:57:50.160Z,97405.27
2023-05-22T23:00:19.457Z,97404.84
2023-05-22T23:02:47.878Z,97404.48
2023-05-22T23:05:20.365Z,97406.08
2023-05-22T23:07:48.998Z,97409.27
2023-05-22T23:10:17.478Z,97411.48
2023-05-22T23:12:48.201Z,97410.31
2023-05-22T23:15:16.687Z,97413.33
2023-05-22T23:17:44.837Z,97412.74
2023-05-22T23:20:13.650Z,97415.28
2023-05-22T23:22:41.790Z,97412.30
2023-05-22T23:25:10.166Z,97407.56
2023-05-22T23:27:38.213Z,97406.95
2023-05-22T23:30:08.241Z,97405.98
2023-05-22T23:32:36.288Z,97408.30
2023-05-22T23:35:05.712Z,97409.91
2023-05-22T23:37:33.915Z,97407.23
2023-05-22T23:40:02.005Z,97407.59
2023-05-22T23:42:30.277Z,97405.83
2023-05-22T23:44:58.615Z,97406.31
2023-05-22T23:47:26.876Z,97404.81
2023-05-22T23:49:56.699Z,97402.83
2023-05-22T23:52:24.924Z,97400.23
2023-05-22T23:54:53.056Z,97395.85
2023-05-22T23:57:21.456Z,97400.95
2023-05-22T23:59:49.834Z,97397.46
